createdAt,value
2022-10-15T00:01:30.034Z,25.10
2022-10-15T00:03:57.652Z,24.07
2022-10-15T00:06:25.478Z,24.83
2022-10-15T00:08:53.259Z,27.57
2022-10-15T00:11:22.219Z,27.13
2022-10-15T00:13:50.051Z,27.30
2022-10-15T00:16:20.093Z,27.27
2022-10-15T00:18:48.120Z,28.50
2022-10-15T00:21:16.670Z,29.67
2022-10-15T00:23:45.072Z,28.83
2022-10-15T00:26:14.684Z,28.53
2022-10-15T00:28:43.026Z,30.27
2022-10-15T00:31:12.084Z,31.13
2022-10-15T00:33:41.256Z,30.40
2022-10-15T00:36:10.392Z,29.90
2022-10-15T00:38:38.115Z,30.40
2022-10-15T00:41:07.266Z,30.63
2022-10-15T00:43:41.965Z,31.80
2022-10-15T00:46:16.440Z,31.87
2022-10-15T00:48:47.627Z,32.00
2022-10-15T00:51:16.107Z,31.30
2022-10-15T00:53:43.830Z,31.03
2022-10-15T00:56:13.021Z,33.10
2022-10-15T00:58:40.531Z,30.23
2022-10-15T01:01:08.759Z,32.50
2022-10-15T01:03:36.803Z,31.53
2022-10-15T01:06:06.074Z,32.17
2022-10-15T01:08:34.276Z,31.60
2022-10-15T01:11:06.706Z,30.37
2022-10-15T01:13:38.832Z,29.87
2022-10-15T01:16:09.715Z,31.10
2022-10-15T01:18:40.440Z,31.60
2022-10-15T01:21:15.315Z,30.90
2022-10-15T01:24:05.140Z,31.50
2022-10-15T01:26:46.054Z,31.20
2022-10-15T01:29:21.297Z,30.30
2022-10-15T01:31:54.247Z,31.50
2022-10-15T01:34:32.074Z,30.73
2022-10-15T01:37:04.867Z,31.40
2022-10-15T01:39:33.662Z,30.73
2022-10-15T01:42:02.109Z,29.50
2022-10-15T01:44:32.337Z,32.53
2022-10-15T01:47:18.203Z,30.83
2022-10-15T01:49:47.645Z,31.67
2022-10-15T01:52:17.921Z,29.97
2022-10-15T01:54:47.086Z,30.23
2022-10-15T02:01:27.547Z,32.97
2022-10-15T02:03:56.720Z,33.13
2022-10-15T02:06:26.830Z,32.50
2022-10-15T02:09:01.894Z,31.63
2022-10-15T02:11:30.623Z,32.50
2022-10-15T02:14:01.971Z,31.10
2022-10-15T02:16:32.693Z,32.53
2022-10-15T02:19:05.547Z,32.03
2022-10-15T02:21:36.625Z,32.50
2022-10-15T02:24:07.089Z,31.13
2022-10-15T02:26:35.528Z,32.57
2022-10-15T02:29:04.893Z,32.30
2022-10-15T02:31:35.351Z,30.60
2022-10-15T02:37:02.147Z,32.20
2022-10-15T02:39:29.806Z,32.07
2022-10-15T02:41:59.875Z,31.83
2022-10-15T02:44:27.514Z,33.10
2022-10-15T02:46:55.861Z,32.33
2022-10-15T02:49:25.048Z,31.60
2022-10-15T02:51:53.390Z,32.50
2022-10-15T02:54:21.522Z,31.50
2022-10-15T02:56:49.102Z,30.17
2022-10-15T02:59:19.692Z,32.43
2022-10-15T03:01:47.669Z,31.97
2022-10-15T03:04:16.514Z,31.13
2022-10-15T03:06:46.338Z,31.20
2022-10-15T03:09:14.951Z,34.87
2022-10-15T03:11:42.459Z,31.80
2022-10-15T03:14:10.165Z,30.70
2022-10-15T03:16:37.678Z,32.30
2022-10-15T03:19:05.927Z,33.40
2022-10-15T03:21:33.912Z,31.67
2022-10-15T03:24:12.275Z,31.57
2022-10-15T03:26:40.023Z,31.37
2022-10-15T03:29:07.598Z,30.70
2022-10-15T03:31:41.398Z,30.70
2022-10-15T03:34:09.465Z,29.80
2022-10-15T03:36:37.318Z,30.73
2022-10-15T03:39:08.893Z,31.93
2022-10-15T03:41:40.153Z,30.90
2022-10-15T03:44:08.806Z,31.57
2022-10-15T03:46:41.252Z,31.03
2022-10-15T03:49:09.147Z,32.77
2022-10-15T03:51:37.388Z,33.50
2022-10-15T03:54:11.119Z,31.97
2022-10-15T03:56:47.932Z,31.93
2022-10-15T03:59:24.367Z,32.87
2022-10-15T04:01:59.050Z,33.70
2022-10-15T04:04:27.340Z,34.13
2022-10-15T04:06:54.971Z,32.13
2022-10-15T04:09:22.606Z,30.87
2022-10-15T04:11:51.568Z,33.00
2022-10-15T04:14:20.192Z,32.80
2022-10-15T04:16:47.676Z,32.77
2022-10-15T04:19:20.294Z,32.47
2022-10-15T04:21:58.660Z,30.80
2022-10-15T04:24:42.752Z,31.57
2022-10-15T04:27:12.266Z,33.70
2022-10-15T04:29:40.026Z,31.57
2022-10-15T04:32:15.139Z,32.73
2022-10-15T04:34:43.233Z,33.60
2022-10-15T04:37:11.679Z,34.33
2022-10-15T04:39:39.933Z,32.70
2022-10-15T04:42:13.626Z,32.30
2022-10-15T04:44:41.528Z,33.23
2022-10-15T04:47:09.244Z,32.57
2022-10-15T04:49:42.673Z,32.57
2022-10-15T04:52:26.957Z,33.00
2022-10-15T04:55:05.101Z,32.40
2022-10-15T04:57:33.976Z,31.90
2022-10-15T05:00:01.546Z,31.97
2022-10-15T05:02:35.144Z,33.27
2022-10-15T05:05:31.994Z,33.63
2022-10-15T05:08:03.530Z,31.90
2022-10-15T05:10:35.069Z,31.47
2022-10-15T05:13:07.901Z,32.27
2022-10-15T05:15:38.295Z,31.10
2022-10-15T05:18:09.289Z,30.20
2022-10-15T05:20:45.746Z,30.90
2022-10-15T05:23:17.673Z,27.70
2022-10-15T05:25:54.213Z,28.80
2022-10-15T05:28:27.141Z,29.13
2022-10-15T05:30:54.759Z,27.60
2022-10-15T05:33:22.531Z,28.30
2022-10-15T05:35:50.310Z,27.97
2022-10-15T05:38:21.305Z,27.30
2022-10-15T05:40:49.556Z,27.60
2022-10-15T05:43:21.389Z,26.00
2022-10-15T05:45:54.471Z,24.80
2022-10-15T05:48:22.257Z,26.47
2022-10-15T05:50:49.806Z,25.70
2022-10-15T05:53:24.356Z,25.13
2022-10-15T05:55:55.906Z,27.30
2022-10-15T05:58:29.046Z,24.87
2022-10-15T06:01:01.297Z,25.43
2022-10-15T06:03:29.107Z,25.40
2022-10-15T06:05:56.648Z,24.20
2022-10-15T06:08:24.321Z,24.53
2022-10-15T06:10:52.018Z,25.07
2022-10-15T06:13:19.784Z,25.07
2022-10-15T06:15:48.186Z,24.13
2022-10-15T06:18:17.859Z,23.93
2022-10-15T06:20:45.476Z,22.80
2022-10-15T06:23:13.208Z,24.10
2022-10-15T06:25:40.733Z,24.70
2022-10-15T06:28:09.481Z,24.33
2022-10-15T06:30:42.302Z,22.47
2022-10-15T06:35:44.475Z,23.60
2022-10-15T06:38:13.895Z,23.20
2022-10-15T06:40:41.594Z,22.90
2022-10-15T06:43:09.806Z,22.53
2022-10-15T06:45:37.910Z,22.30
2022-10-15T06:48:09.502Z,20.20
2022-10-15T06:50:38.270Z,21.10
2022-10-15T06:53:07.482Z,22.70
2022-10-15T06:55:35.884Z,21.57
2022-10-15T06:58:03.543Z,20.03
2022-10-15T07:00:31.255Z,20.40
2022-10-15T07:03:03.339Z,19.73
2022-10-15T07:05:30.876Z,19.70
2022-10-15T07:07:58.678Z,20.80
2022-10-15T07:10:28.375Z,19.50
2022-10-15T07:12:55.867Z,20.80
2022-10-15T07:15:23.585Z,23.23
2022-10-15T07:17:51.667Z,20.77
2022-10-15T07:20:21.923Z,19.60
2022-10-15T07:22:52.130Z,21.37
2022-10-15T07:25:20.348Z,21.17
2022-10-15T07:27:49.491Z,20.90
2022-10-15T07:30:17.145Z,19.83
2022-10-15T07:32:46.459Z,18.87
2022-10-15T07:35:14.297Z,20.63
2022-10-15T07:37:41.949Z,17.93
2022-10-15T07:40:09.897Z,20.40
2022-10-15T07:42:38.529Z,18.60
2022-10-15T07:45:08.510Z,16.07
2022-10-15T07:47:36.127Z,14.70
2022-10-15T07:50:03.938Z,14.70
2022-10-15T07:52:31.981Z,14.30
2022-10-15T07:54:59.427Z,12.13
2022-10-15T07:57:27.601Z,12.30
2022-10-15T07:59:55.194Z,12.10
2022-10-15T08:02:24.530Z,11.50
2022-10-15T08:04:52.524Z,11.13
2022-10-15T08:07:20.066Z,10.50
2022-10-15T08:09:47.540Z,10.10
2022-10-15T08:12:15.315Z,10.40
2022-10-15T08:14:42.910Z,10.97
2022-10-15T08:17:10.830Z,11.13
2022-10-15T08:19:40.225Z,10.07
2022-10-15T08:22:08.034Z,9.50
2022-10-15T08:24:35.834Z,10.03
2022-10-15T08:27:03.374Z,10.13
2022-10-15T08:29:31.478Z,9.40
2022-10-15T08:31:59.019Z,9.50
2022-10-15T08:34:27.432Z,10.27
2022-10-15T08:36:56.525Z,8.60
2022-10-15T08:39:24.126Z,8.23
2022-10-15T08:41:53.126Z,9.10
2022-10-15T08:44:23.723Z,10.60
2022-10-15T08:46:53.382Z,10.63
2022-10-15T08:49:27.581Z,7.93
2022-10-15T08:51:58.306Z,7.30
2022-10-15T08:54:25.990Z,7.93
2022-10-15T08:56:55.741Z,8.80
2022-10-15T08:59:31.859Z,9.80
2022-10-15T09:02:03.915Z,7.77
2022-10-15T09:04:33.354Z,8.70
2022-10-15T09:07:05.665Z,8.47
2022-10-15T09:09:36.043Z,11.63
2022-10-15T09:12:06.219Z,10.13
2022-10-15T09:14:35.580Z,10.67
2022-10-15T09:17:06.591Z,10.70
2022-10-15T09:19:36.118Z,10.83
2022-10-15T09:22:13.504Z,9.60
2022-10-15T09:24:41.202Z,10.93
2022-10-15T09:27:10.810Z,12.80
2022-10-15T09:29:42.754Z,11.30
2022-10-15T09:32:14.486Z,11.47
2022-10-15T09:34:44.694Z,10.20
2022-10-15T09:37:16.387Z,12.17
2022-10-15T09:40:09.231Z,10.20
2022-10-15T09:42:38.597Z,9.47
2022-10-15T09:45:07.420Z,9.10
2022-10-15T09:47:36.159Z,8.87
2022-10-15T09:50:05.007Z,8.67
2022-10-15T09:52:46.654Z,9.00
2022-10-15T09:55:25.671Z,9.00
2022-10-15T09:57:56.020Z,9.63
2022-10-15T10:00:24.187Z,9.00
2022-10-15T10:03:04.878Z,8.20
2022-10-15T10:05:33.919Z,9.90
2022-10-15T10:08:10.269Z,10.70
2022-10-15T10:10:41.773Z,12.00
2022-10-15T10:13:22.714Z,12.87
2022-10-15T10:15:57.505Z,9.20
2022-10-15T10:18:27.647Z,8.37
2022-10-15T10:20:58.935Z,8.60
2022-10-15T10:23:31.344Z,7.83
2022-10-15T10:26:00.175Z,7.80
2022-10-15T10:28:28.915Z,7.23
2022-10-15T10:31:03.549Z,8.20
2022-10-15T10:33:32.952Z,7.63
2022-10-15T10:36:01.615Z,8.37
2022-10-15T10:38:32.879Z,7.30
2022-10-15T10:41:05.283Z,7.50
2022-10-15T10:43:38.309Z,7.33
2022-10-15T10:46:18.197Z,7.33
2022-10-15T10:48:49.141Z,7.67
2022-10-15T10:51:19.398Z,7.63
2022-10-15T10:53:54.910Z,7.50
2022-10-15T10:56:24.297Z,7.30
2022-10-15T10:59:00.168Z,7.10
2022-10-15T11:01:28.235Z,7.23
2022-10-15T11:03:55.736Z,7.40
2022-10-15T11:06:33.125Z,7.80
2022-10-15T11:09:18.700Z,7.40
2022-10-15T11:11:53.356Z,7.10
2022-10-15T11:14:25.218Z,7.77
2022-10-15T11:16:57.300Z,7.30
2022-10-15T11:20:06.217Z,6.97
2022-10-15T11:22:35.925Z,7.60
2022-10-15T11:25:08.126Z,7.93
2022-10-15T11:27:42.999Z,6.80
2022-10-15T11:30:18.295Z,7.00
2022-10-15T11:33:06.845Z,6.70
2022-10-15T11:35:55.171Z,7.20
2022-10-15T11:38:29.672Z,7.30
2022-10-15T11:41:04.692Z,6.93
2022-10-15T11:43:39.996Z,7.20
2022-10-15T11:46:12.191Z,7.03
2022-10-15T11:48:47.571Z,6.10
2022-10-15T11:51:23.502Z,7.00
2022-10-15T11:53:57.736Z,7.63
2022-10-15T11:56:30.280Z,6.53
2022-10-15T11:59:01.704Z,5.07
2022-10-15T12:01:32.043Z,7.13
2022-10-15T12:04:09.662Z,7.80
2022-10-15T12:06:38.446Z,5.10
2022-10-15T12:09:06.983Z,5.53
2022-10-15T12:11:43.055Z,6.87
2022-10-15T12:14:21.651Z,5.63
2022-10-15T12:16:55.166Z,6.50
2022-10-15T12:19:27.482Z,5.50
2022-10-15T12:22:06.838Z,5.57
2022-10-15T12:24:52.361Z,6.17
2022-10-15T12:27:26.971Z,5.80
2022-10-15T12:30:11.570Z,4.73
2022-10-15T12:32:40.124Z,4.87
2022-10-15T12:35:08.913Z,5.13
2022-10-15T12:37:36.932Z,5.23
2022-10-15T12:40:06.832Z,4.60
2022-10-15T12:42:36.669Z,4.73
2022-10-15T12:45:05.435Z,5.70
2022-10-15T12:47:49.913Z,5.40
2022-10-15T12:50:19.130Z,4.87
2022-10-15T12:52:52.245Z,5.10
2022-10-15T12:55:22.161Z,5.67
2022-10-15T13:00:42.901Z,4.53
2022-10-15T13:03:15.715Z,5.43
2022-10-15T13:05:43.493Z,4.60
2022-10-15T13:08:14.330Z,4.30
2022-10-15T13:10:48.772Z,4.67
2022-10-15T13:13:19.133Z,4.20
2022-10-15T13:15:54.574Z,4.53
2022-10-15T13:18:25.623Z,4.00
2022-10-15T13:20:56.144Z,3.60
2022-10-15T13:23:31.726Z,3.70
2022-10-15T13:26:13.251Z,3.93
2022-10-15T13:28:42.834Z,2.90
2022-10-15T13:31:14.511Z,3.33
2022-10-15T13:33:44.292Z,3.47
2022-10-15T13:36:19.353Z,4.50
2022-10-15T13:38:52.480Z,4.20
2022-10-15T13:41:24.006Z,5.50
2022-10-15T13:43:54.895Z,4.60
2022-10-15T13:46:24.398Z,4.63
2022-10-15T13:48:57.199Z,3.83
2022-10-15T13:51:26.556Z,4.10
2022-10-15T13:53:54.051Z,3.90
2022-10-15T13:56:24.656Z,5.20
2022-10-15T13:58:54.810Z,3.70
2022-10-15T14:01:23.523Z,5.40
2022-10-15T14:03:52.013Z,3.50
2022-10-15T14:06:21.210Z,3.53
2022-10-15T14:08:49.683Z,4.13
2022-10-15T14:11:17.733Z,3.20
2022-10-15T14:13:46.403Z,4.13
2022-10-15T14:16:16.758Z,4.60
2022-10-15T14:18:49.030Z,3.70
2022-10-15T14:21:19.154Z,4.50
2022-10-15T14:23:47.957Z,4.70
2022-10-15T14:26:16.848Z,4.17
2022-10-15T14:28:50.892Z,5.93
2022-10-15T14:31:29.724Z,5.00
2022-10-15T14:33:57.769Z,6.30
2022-10-15T14:36:27.002Z,5.40
2022-10-15T14:38:55.462Z,4.90
2022-10-15T14:41:26.045Z,4.03
2022-10-15T14:44:04.985Z,4.57
2022-10-15T14:46:37.218Z,3.87
2022-10-15T14:49:05.659Z,4.00
2022-10-15T14:51:33.122Z,4.23
2022-10-15T14:54:01.095Z,4.97
2022-10-15T14:56:32.227Z,3.67
2022-10-15T14:59:01.050Z,4.63
2022-10-15T15:01:30.353Z,5.00
2022-10-15T15:03:59.334Z,3.60
2022-10-15T15:06:26.783Z,3.37
2022-10-15T15:08:54.465Z,19.10
2022-10-15T15:11:23.899Z,3.53
2022-10-15T15:13:52.200Z,3.53
2022-10-15T15:16:20.086Z,3.27
2022-10-15T15:18:48.830Z,3.30
2022-10-15T15:21:20.869Z,3.13
2022-10-15T15:23:49.355Z,3.90
2022-10-15T15:26:16.919Z,3.57
2022-10-15T15:28:44.589Z,4.47
2022-10-15T15:31:14.977Z,4.43
2022-10-15T15:33:42.703Z,4.10
2022-10-15T15:36:12.902Z,4.07
2022-10-15T15:38:42.240Z,3.97
2022-10-15T15:41:12.587Z,3.60
2022-10-15T15:43:40.347Z,4.40
2022-10-15T15:46:07.955Z,4.90
2022-10-15T15:48:35.667Z,4.47
2022-10-15T15:51:04.660Z,4.30
2022-10-15T15:53:32.453Z,7.87
2022-10-15T15:56:01.239Z,6.73
2022-10-15T15:58:28.907Z,7.90
2022-10-15T16:00:57.267Z,5.83
2022-10-15T16:03:24.857Z,7.00
2022-10-15T16:05:54.302Z,6.40
2022-10-15T16:08:22.472Z,6.50
2022-10-15T16:10:49.907Z,5.90
2022-10-15T16:13:18.923Z,7.10
2022-10-15T16:15:46.751Z,6.17
2022-10-15T16:18:14.341Z,6.90
2022-10-15T16:20:46.297Z,8.53
2022-10-15T16:23:15.692Z,8.17
2022-10-15T16:25:43.124Z,8.90
2022-10-15T16:28:10.816Z,9.10
2022-10-15T16:30:39.818Z,9.50
2022-10-15T16:35:36.458Z,9.90
2022-10-15T16:38:04.369Z,9.70
2022-10-15T16:40:31.858Z,10.63
2022-10-15T16:42:59.404Z,9.13
2022-10-15T16:45:27.208Z,9.43
2022-10-15T16:47:56.527Z,11.30
2022-10-15T16:50:24.133Z,10.87
2022-10-15T16:52:52.072Z,11.23
2022-10-15T16:55:19.582Z,12.23
2022-10-15T16:57:47.135Z,13.93
2022-10-15T17:00:15.497Z,13.67
2022-10-15T17:02:43.130Z,15.33
2022-10-15T17:05:12.026Z,14.73
2022-10-15T17:07:41.023Z,14.93
2022-10-15T17:10:10.978Z,16.37
2022-10-15T17:12:41.744Z,18.73
2022-10-15T17:15:09.925Z,16.90
2022-10-15T17:17:37.626Z,17.30
2022-10-15T17:20:06.678Z,16.40
2022-10-15T17:22:35.823Z,15.70
2022-10-15T17:25:03.740Z,17.80
2022-10-15T17:27:31.473Z,17.33
2022-10-15T17:29:58.951Z,16.53
2022-10-15T17:32:26.778Z,16.67
2022-10-15T17:34:54.804Z,17.70
2022-10-15T17:37:22.515Z,15.60
2022-10-15T17:39:53.444Z,17.70
2022-10-15T17:42:21.787Z,16.73
2022-10-15T17:44:49.335Z,17.30
2022-10-15T17:47:17.188Z,16.60
2022-10-15T17:49:44.715Z,16.07
2022-10-15T17:52:13.474Z,15.93
2022-10-15T17:54:40.955Z,13.20
2022-10-15T17:57:10.195Z,13.77
2022-10-15T17:59:37.653Z,13.40
2022-10-15T18:02:05.319Z,15.93
2022-10-15T18:04:39.391Z,13.27
2022-10-15T18:07:07.233Z,15.37
2022-10-15T18:09:35.290Z,13.27
2022-10-15T18:12:03.334Z,12.20
2022-10-15T18:14:35.755Z,12.83
2022-10-15T18:17:03.303Z,10.90
2022-10-15T18:19:30.801Z,11.40
2022-10-15T18:21:58.829Z,11.10
2022-10-15T18:24:26.375Z,10.67
2022-10-15T18:26:54.143Z,9.90
2022-10-15T18:29:22.597Z,11.00
2022-10-15T18:31:57.145Z,10.63
2022-10-15T18:34:27.720Z,10.53
2022-10-15T18:36:55.169Z,11.67
2022-10-15T18:39:24.180Z,11.17
2022-10-15T18:41:51.697Z,10.27
2022-10-15T18:44:21.470Z,10.20
2022-10-15T18:46:49.349Z,10.20
2022-10-15T18:49:19.459Z,11.40
2022-10-15T18:51:50.703Z,11.40
2022-10-15T18:54:18.267Z,10.80
2022-10-15T18:56:46.501Z,11.13
2022-10-15T18:59:15.898Z,9.40
2022-10-15T19:01:43.950Z,8.80
2022-10-15T19:04:13.027Z,9.60
2022-10-15T19:06:43.243Z,9.83
2022-10-15T19:09:12.652Z,10.50
2022-10-15T19:11:41.502Z,10.50
2022-10-15T19:14:09.575Z,10.20
2022-10-15T19:16:37.406Z,12.00
2022-10-15T19:19:12.466Z,12.30
2022-10-15T19:21:40.343Z,11.23
2022-10-15T19:24:09.306Z,9.93
2022-10-15T19:26:37.011Z,9.60
2022-10-15T19:29:05.026Z,10.60
2022-10-15T19:31:33.762Z,10.20
2022-10-15T19:34:01.361Z,9.53
2022-10-15T19:36:33.423Z,9.70
2022-10-15T19:39:02.044Z,9.53
2022-10-15T19:41:30.929Z,8.83
2022-10-15T19:43:58.982Z,9.40
2022-10-15T19:46:26.713Z,9.13
2022-10-15T19:48:54.936Z,9.60
2022-10-15T19:51:22.594Z,9.00
2022-10-15T19:53:51.738Z,8.87
2022-10-15T19:56:19.483Z,8.33
2022-10-15T19:58:48.686Z,8.63
2022-10-15T20:01:16.253Z,8.10
2022-10-15T20:03:44.040Z,8.50
2022-10-15T20:06:11.862Z,8.00
2022-10-15T20:08:39.453Z,8.83
2022-10-15T20:11:07.990Z,8.60
2022-10-15T20:13:35.973Z,7.77
2022-10-15T20:16:06.587Z,8.40
2022-10-15T20:18:34.616Z,9.53
2022-10-15T20:21:02.168Z,10.10
2022-10-15T20:23:29.711Z,10.63
2022-10-15T20:25:57.194Z,10.63
2022-10-15T20:28:25.113Z,10.93
2022-10-15T20:33:30.597Z,10.00
2022-10-15T20:36:02.966Z,10.00
2022-10-15T20:38:30.556Z,9.93
2022-10-15T20:40:58.755Z,9.87
2022-10-15T20:43:26.447Z,9.27
2022-10-15T20:45:56.234Z,10.60
2022-10-15T20:48:25.138Z,10.80
2022-10-15T20:50:54.659Z,10.60
2022-10-15T20:53:23.325Z,11.47
2022-10-15T20:55:50.921Z,11.53
2022-10-15T20:58:18.503Z,11.30
2022-10-15T21:00:46.166Z,11.23
2022-10-15T21:03:13.865Z,15.10
2022-10-15T21:05:41.446Z,11.07
2022-10-15T21:08:11.011Z,14.40
2022-10-15T21:10:38.542Z,12.47
2022-10-15T21:13:06.202Z,12.03
2022-10-15T21:15:34.529Z,11.90
2022-10-15T21:18:02.054Z,11.80
2022-10-15T21:20:29.646Z,13.13
2022-10-15T21:22:57.579Z,13.80
2022-10-15T21:25:26.942Z,13.90
2022-10-15T21:27:54.512Z,14.07
2022-10-15T21:30:22.075Z,12.60
2022-10-15T21:32:50.106Z,11.50
2022-10-15T21:35:17.855Z,11.10
2022-10-15T21:37:45.337Z,10.80
2022-10-15T21:40:13.166Z,10.17
2022-10-15T21:42:42.395Z,11.53
2022-10-15T21:45:10.817Z,11.93
2022-10-15T21:47:38.311Z,11.20
2022-10-15T21:50:06.390Z,11.90
2022-10-15T21:52:33.912Z,10.70
2022-10-15T21:55:01.417Z,10.77
2022-10-15T21:57:28.975Z,10.70
2022-10-15T21:59:58.070Z,11.03
2022-10-15T22:02:25.698Z,8.97
2022-10-15T22:04:53.305Z,8.67
2022-10-15T22:07:20.878Z,9.20
2022-10-15T22:09:48.527Z,9.67
2022-10-15T22:12:18.967Z,8.00
2022-10-15T22:14:49.087Z,7.80
2022-10-15T22:17:18.112Z,8.13
2022-10-15T22:19:45.815Z,7.27
2022-10-15T22:22:13.651Z,7.17
2022-10-15T22:24:41.119Z,6.00
2022-10-15T22:27:09.143Z,6.43
2022-10-15T22:29:37.264Z,6.60
2022-10-15T22:32:04.905Z,6.33
2022-10-15T22:34:34.663Z,7.03
2022-10-15T22:37:02.220Z,5.90
2022-10-15T22:39:29.942Z,6.50
2022-10-15T22:41:57.415Z,6.50
2022-10-15T22:44:25.276Z,6.40
2022-10-15T22:46:52.771Z,6.33
2022-10-15T22:49:21.871Z,7.43
2022-10-15T22:51:51.278Z,8.37
2022-10-15T22:54:19.876Z,6.20
2022-10-15T22:56:47.466Z,6.80
2022-10-15T22:59:15.351Z,6.00
2022-10-15T23:01:45.625Z,6.30
2022-10-15T23:04:13.982Z,7.20
2022-10-15T23:06:41.918Z,6.37
2022-10-15T23:09:17.733Z,6.20
2022-10-15T23:11:46.252Z,6.33
2022-10-15T23:14:14.813Z,7.20
2022-10-15T23:16:43.768Z,7.10
2022-10-15T23:19:13.485Z,6.90
2022-10-15T23:21:42.403Z,7.23
2022-10-15T23:24:11.307Z,6.20
2022-10-15T23:26:39.493Z,6.53
2022-10-15T23:29:08.220Z,6.80
2022-10-15T23:31:37.112Z,6.30
2022-10-15T23:34:05.926Z,6.30
2022-10-15T23:36:34.123Z,5.60
2022-10-15T23:39:02.667Z,5.27
2022-10-15T23:41:31.809Z,5.00
2022-10-15T23:43:59.563Z,4.70
2022-10-15T23:46:28.054Z,5.20
2022-10-15T23:48:55.683Z,4.43
2022-10-15T23:51:24.599Z,4.70
2022-10-15T23:53:53.156Z,4.80
2022-10-15T23:56:21.191Z,4.33
2022-10-15T23:58:51.020Z,4.20
